createdAt,value
2023-02-08T00:01:23.255Z,-1.73
2023-02-08T00:04:09.400Z,-1.60
2023-02-08T00:06:51.906Z,-1.77
2023-02-08T00:09:23.802Z,-1.74
2023-02-08T00:15:50.183Z,-1.59
2023-02-08T00:18:21.906Z,-1.86
2023-02-08T00:21:00.359Z,-1.68
2023-02-08T00:23:31.705Z,-1.85
2023-02-08T00:26:05.516Z,-1.58
2023-02-08T00:31:52.516Z,-1.71
2023-02-08T00:43:53.759Z,-1.89
2023-02-08T00:46:25.181Z,-2.00
2023-02-08T00:49:05.509Z,-2.06
2023-02-08T00:51:34.298Z,-2.08
2023-02-08T00:54:18.312Z,-1.85
2023-02-08T00:56:47.771Z,-1.90
2023-02-08T00:59:30.462Z,-2.11
2023-02-08T01:02:07.430Z,-1.99
2023-02-08T01:04:40.898Z,-2.03
2023-02-08T01:07:14.398Z,-2.10
2023-02-08T01:09:50.044Z,-1.96
2023-02-08T01:15:17.520Z,-1.91
2023-02-08T01:18:34.144Z,-2.06
2023-02-08T01:21:39.462Z,-1.66
2023-02-08T01:24:12.180Z,-1.82
2023-02-08T01:26:58.990Z,-2.07
2023-02-08T01:29:39.212Z,-2.03
2023-02-08T01:32:09.800Z,-2.08
2023-02-08T01:34:56.190Z,-2.11
2023-02-08T01:37:40.222Z,-2.09
2023-02-08T01:40:14.828Z,-2.09
2023-02-08T01:45:45.973Z,-2.14
2023-02-08T01:48:25.842Z,-2.14
2023-02-08T01:51:09.263Z,-2.10
2023-02-08T01:53:49.112Z,-2.18
2023-02-08T01:56:23.093Z,-2.14
2023-02-08T01:58:58.286Z,-2.13
2023-02-08T02:01:28.502Z,-2.14
2023-02-08T02:04:06.181Z,-2.16
2023-02-08T02:06:47.523Z,-2.08
2023-02-08T02:09:23.709Z,-2.34
2023-02-08T02:12:07.864Z,-2.16
2023-02-08T02:14:39.087Z,-2.15
2023-02-08T02:17:11.838Z,-2.09
2023-02-08T02:23:21.640Z,-2.26
2023-02-08T02:29:34.448Z,-2.26
2023-02-08T02:32:26.840Z,-2.38
2023-02-08T02:35:05.978Z,-2.49
2023-02-08T02:37:53.752Z,-2.39
2023-02-08T02:40:33.823Z,-2.16
2023-02-08T02:43:27.438Z,-2.12
2023-02-08T02:46:09.177Z,-2.27
2023-02-08T02:49:04.282Z,-2.33
2023-02-08T02:51:43.237Z,-2.42
2023-02-08T02:57:41.822Z,-2.38
2023-02-08T03:03:08.276Z,-2.31
2023-02-08T03:05:46.577Z,-2.24
2023-02-08T03:08:34.845Z,-2.31
2023-02-08T03:14:24.804Z,-2.44
2023-02-08T03:17:20.914Z,-2.44
2023-02-08T03:20:05.201Z,-2.33
2023-02-08T03:22:47.082Z,-2.52
2023-02-08T03:25:22.240Z,-2.61
2023-02-08T03:31:09.236Z,-2.71
2023-02-08T03:33:46.281Z,-2.74
2023-02-08T03:36:25.086Z,-2.60
2023-02-08T03:39:01.596Z,-2.98
2023-02-08T03:41:49.141Z,-2.95
2023-02-08T03:44:27.834Z,-3.06
2023-02-08T03:47:05.060Z,-3.21
2023-02-08T03:49:37.548Z,-2.99
2023-02-08T03:55:13.221Z,-3.12
2023-02-08T03:57:48.795Z,-3.17
2023-02-08T04:00:20.173Z,-3.09
2023-02-08T04:02:56.308Z,-3.01
2023-02-08T04:05:31.531Z,-2.87
2023-02-08T04:08:09.394Z,-2.91
2023-02-08T04:10:56.403Z,-2.90
2023-02-08T04:13:31.781Z,-3.01
2023-02-08T04:16:13.000Z,-3.02
2023-02-08T04:18:50.634Z,-2.99
2023-02-08T04:21:30.535Z,-2.97
2023-02-08T04:24:11.383Z,-2.87
2023-02-08T04:26:56.752Z,-3.01
2023-02-08T04:29:34.397Z,-2.94
2023-02-08T04:35:01.398Z,-2.72
2023-02-08T04:37:35.690Z,-2.86
2023-02-08T04:40:07.864Z,-2.81
2023-02-08T04:42:58.450Z,-2.86
2023-02-08T04:45:32.381Z,-2.80
2023-02-08T04:48:07.500Z,-2.84
2023-02-08T04:50:41.270Z,-2.54
2023-02-08T04:56:07.001Z,-2.73
2023-02-08T04:58:51.857Z,-2.80
2023-02-08T05:01:25.035Z,-2.66
2023-02-08T05:04:04.376Z,-2.76
2023-02-08T05:06:36.335Z,-2.78
2023-02-08T05:09:09.225Z,-2.78
2023-02-08T05:11:39.496Z,-2.82
2023-02-08T05:14:21.359Z,-2.63
2023-02-08T05:16:57.643Z,-2.81
2023-02-08T05:19:30.288Z,-2.90
2023-02-08T05:22:04.459Z,-2.60
2023-02-08T05:24:42.309Z,-2.78
2023-02-08T05:27:14.943Z,-2.63
2023-02-08T05:30:11.835Z,-2.88
2023-02-08T05:35:48.528Z,-2.83
2023-02-08T05:38:30.072Z,-2.77
2023-02-08T05:41:04.641Z,-2.87
2023-02-08T05:43:34.760Z,-2.85
2023-02-08T05:46:06.670Z,-2.85
2023-02-08T05:54:37.097Z,-2.90
2023-02-08T05:57:10.915Z,-2.93
2023-02-08T05:59:43.263Z,-3.02
2023-02-08T06:02:25.921Z,-2.83
2023-02-08T06:04:56.372Z,-3.01
2023-02-08T06:07:33.793Z,-3.09
2023-02-08T06:10:12.704Z,-2.86
2023-02-08T06:16:39.564Z,-2.87
2023-02-08T06:19:25.830Z,-2.94
2023-02-08T06:22:05.818Z,-2.83
2023-02-08T06:24:44.786Z,-2.79
2023-02-08T06:27:28.760Z,-2.75
2023-02-08T06:30:07.326Z,-2.84
2023-02-08T06:32:37.305Z,-2.82
2023-02-08T06:35:18.493Z,-2.87
2023-02-08T06:37:52.155Z,-2.97
2023-02-08T06:40:25.674Z,-2.84
2023-02-08T06:43:02.654Z,-2.67
2023-02-08T06:45:32.530Z,-2.68
2023-02-08T06:48:12.083Z,-2.88
2023-02-08T06:50:50.690Z,-2.78
2023-02-08T06:53:24.180Z,-2.83
2023-02-08T06:56:03.316Z,-2.72
2023-02-08T06:58:41.200Z,-2.58
2023-02-08T07:01:14.272Z,-2.53
2023-02-08T07:03:54.064Z,-2.54
2023-02-08T07:06:31.876Z,-2.47
2023-02-08T07:09:00.528Z,-2.56
2023-02-08T07:11:41.519Z,-2.52
2023-02-08T07:14:18.844Z,-2.53
2023-02-08T07:16:51.838Z,-2.51
2023-02-08T07:19:23.076Z,-2.50
2023-02-08T07:22:08.484Z,-2.49
2023-02-08T07:24:40.797Z,-2.26
2023-02-08T07:27:17.299Z,-2.29
2023-02-08T07:29:53.518Z,-2.30
2023-02-08T07:32:28.820Z,-2.26
2023-02-08T07:35:05.355Z,-2.39
2023-02-08T07:43:37.690Z,-2.22
2023-02-08T07:52:49.875Z,-2.21
2023-02-08T08:07:54.005Z,-2.09
2023-02-08T08:10:32.418Z,-2.11
2023-02-08T08:19:48.560Z,-2.01
2023-02-08T08:22:18.756Z,-1.94
2023-02-08T08:25:00.651Z,-1.79
2023-02-08T09:07:30.173Z,-1.22
2023-02-08T09:32:12.507Z,-0.70
2023-02-08T09:34:46.803Z,-0.71
2023-02-08T09:37:21.416Z,-0.67
2023-02-08T09:40:06.213Z,-0.69
2023-02-08T09:42:58.269Z,-0.86
2023-02-08T09:45:57.868Z,-1.09
2023-02-08T09:48:50.232Z,-0.92
2023-02-08T09:54:28.029Z,-0.51
2023-02-08T09:57:07.446Z,-0.45
2023-02-08T09:59:37.631Z,-0.49
2023-02-08T10:02:25.494Z,-0.32
2023-02-08T10:05:21.290Z,-0.46
2023-02-08T10:07:50.082Z,-0.31
2023-02-08T10:10:26.039Z,-0.42
2023-02-08T10:13:01.412Z,-0.51
2023-02-08T10:15:35.285Z,-0.56
2023-02-08T10:18:29.680Z,-0.48
2023-02-08T10:21:21.034Z,-0.42
2023-02-08T10:24:07.860Z,-0.44
2023-02-08T10:26:41.877Z,-0.35
2023-02-08T10:36:18.760Z,-0.12
2023-02-08T10:38:53.706Z,-0.18
2023-02-08T10:41:29.043Z,-0.21
2023-02-08T10:44:10.039Z,-0.12
2023-02-08T10:46:47.469Z,0.01
2023-02-08T10:49:21.106Z,0.16
2023-02-08T10:51:54.322Z,0.13
2023-02-08T10:54:30.553Z,0.24
2023-02-08T10:57:03.884Z,0.41
2023-02-08T10:59:46.706Z,0.13
2023-02-08T11:02:23.479Z,0.37
2023-02-08T11:05:05.576Z,0.29
2023-02-08T11:07:44.696Z,0.62
2023-02-08T11:10:16.964Z,0.56
2023-02-08T11:13:20.510Z,0.38
2023-02-08T11:16:16.635Z,0.46
2023-02-08T11:18:51.830Z,0.61
2023-02-08T11:21:34.505Z,0.40
2023-02-08T11:24:40.756Z,0.40
2023-02-08T11:27:19.861Z,0.57
2023-02-08T11:29:51.011Z,0.69
2023-02-08T11:32:21.104Z,0.53
2023-02-08T11:34:51.758Z,0.41
2023-02-08T11:37:28.973Z,0.43
2023-02-08T11:40:04.541Z,0.65
2023-02-08T11:42:37.182Z,0.72
2023-02-08T11:45:11.649Z,0.66
2023-02-08T11:47:42.179Z,0.67
2023-02-08T11:50:27.813Z,0.90
2023-02-08T11:53:02.270Z,0.79
2023-02-08T11:55:48.562Z,0.97
2023-02-08T11:58:25.257Z,0.87
2023-02-08T12:01:12.189Z,1.05
2023-02-08T12:03:48.355Z,1.14
2023-02-08T12:06:47.453Z,1.14
2023-02-08T12:09:31.480Z,1.20
2023-02-08T12:12:15.939Z,1.32
2023-02-08T12:15:24.469Z,1.12
2023-02-08T12:18:20.003Z,1.07
2023-02-08T12:20:49.935Z,1.11
2023-02-08T12:23:51.916Z,1.18
2023-02-08T12:26:43.493Z,1.25
2023-02-08T12:29:47.351Z,1.37
2023-02-08T12:32:43.353Z,1.36
2023-02-08T12:36:04.549Z,1.30
2023-02-08T12:39:17.891Z,1.32
2023-02-08T12:42:00.185Z,1.20
2023-02-08T12:44:35.748Z,1.39
2023-02-08T12:47:32.290Z,1.37
2023-02-08T12:50:13.721Z,1.56
2023-02-08T12:52:48.410Z,1.51
2023-02-08T12:55:20.332Z,1.53
2023-02-08T12:57:53.293Z,1.40
2023-02-08T13:00:25.660Z,1.26
2023-02-08T13:03:08.812Z,1.39
2023-02-08T13:05:46.210Z,1.50
2023-02-08T13:08:31.652Z,1.54
2023-02-08T13:11:19.207Z,1.61
2023-02-08T13:13:57.456Z,1.50
2023-02-08T13:16:30.828Z,1.45
2023-02-08T13:19:23.427Z,1.66
2023-02-08T13:21:59.561Z,1.61
2023-02-08T13:24:40.729Z,1.56
2023-02-08T13:27:12.650Z,1.87
2023-02-08T13:29:44.166Z,1.77
2023-02-08T13:32:26.233Z,1.63
2023-02-08T13:35:04.223Z,1.59
2023-02-08T13:37:44.126Z,1.62
2023-02-08T13:40:28.426Z,1.59
2023-02-08T13:43:04.020Z,1.55
2023-02-08T13:45:39.388Z,1.73
2023-02-08T13:48:11.842Z,1.62
2023-02-08T13:50:57.368Z,1.71
2023-02-08T13:54:09.017Z,1.63
2023-02-08T13:56:43.774Z,1.68
2023-02-08T14:00:06.877Z,1.67
2023-02-08T14:03:02.136Z,1.93
2023-02-08T14:05:53.365Z,1.83
2023-02-08T14:08:30.069Z,1.81
2023-02-08T14:11:15.512Z,1.73
2023-02-08T14:13:53.688Z,1.83
2023-02-08T14:16:35.457Z,1.81
2023-02-08T14:19:06.403Z,1.89
2023-02-08T14:21:45.184Z,1.81
2023-02-08T14:24:28.607Z,1.76
2023-02-08T14:27:09.620Z,2.01
2023-02-08T14:29:39.564Z,1.95
2023-02-08T14:32:07.936Z,1.94
2023-02-08T14:34:40.419Z,2.02
2023-02-08T14:37:33.057Z,1.91
2023-02-08T14:40:43.388Z,1.85
2023-02-08T14:43:35.784Z,2.02
2023-02-08T14:46:43.534Z,2.03
2023-02-08T14:49:23.357Z,1.99
2023-02-08T14:51:56.565Z,1.91
2023-02-08T14:54:33.544Z,1.84
2023-02-08T14:57:09.152Z,1.94
2023-02-08T14:59:38.794Z,1.92
2023-02-08T15:02:18.957Z,1.81
2023-02-08T15:04:56.509Z,1.69
2023-02-08T15:07:34.368Z,1.76
2023-02-08T15:10:19.274Z,1.82
2023-02-08T15:13:00.230Z,1.79
2023-02-08T15:15:36.951Z,1.77
2023-02-08T15:18:08.476Z,1.65
2023-02-08T15:20:40.391Z,1.57
2023-02-08T15:23:22.892Z,1.66
2023-02-08T15:26:04.300Z,1.47
2023-02-08T15:28:39.496Z,1.52
2023-02-08T15:31:11.291Z,1.38
2023-02-08T15:33:40.550Z,1.28
2023-02-08T15:36:17.160Z,1.24
2023-02-08T15:38:53.466Z,1.23
2023-02-08T15:41:28.973Z,1.27
2023-02-08T15:44:18.284Z,1.22
2023-02-08T15:46:49.236Z,1.14
2023-02-08T15:49:20.234Z,1.21
2023-02-08T15:51:54.078Z,1.18
2023-02-08T15:54:23.069Z,1.08
2023-02-08T15:57:00.582Z,0.98
2023-02-08T15:59:32.889Z,1.08
2023-02-08T16:02:10.419Z,1.24
2023-02-08T16:04:47.007Z,1.07
2023-02-08T16:07:32.547Z,1.00
2023-02-08T16:10:01.145Z,0.95
2023-02-08T16:12:36.355Z,0.98
2023-02-08T16:15:08.646Z,0.87
2023-02-08T16:17:52.719Z,0.82
2023-02-08T16:20:31.341Z,0.85
2023-02-08T16:23:06.249Z,0.93
2023-02-08T16:25:45.620Z,0.77
2023-02-08T16:28:35.568Z,0.82
2023-02-08T16:31:11.762Z,0.79
2023-02-08T16:33:41.962Z,0.68
2023-02-08T16:36:27.897Z,0.68
2023-02-08T16:39:41.555Z,0.63
2023-02-08T16:42:29.749Z,0.60
2023-02-08T16:45:24.976Z,0.53
2023-02-08T16:48:04.265Z,0.44
2023-02-08T16:50:45.980Z,0.42
2023-02-08T16:53:41.894Z,0.48
2023-02-08T16:56:13.625Z,0.45
2023-02-08T16:58:46.378Z,0.31
2023-02-08T17:01:26.413Z,0.42
2023-02-08T17:03:56.070Z,0.49
2023-02-08T17:06:31.999Z,0.38
2023-02-08T17:09:18.241Z,0.31
2023-02-08T17:11:56.691Z,0.30
2023-02-08T17:14:29.740Z,0.27
2023-02-08T17:17:10.054Z,0.25
2023-02-08T17:19:43.544Z,0.22
2023-02-08T17:22:23.175Z,0.31
2023-02-08T17:24:52.964Z,0.18
2023-02-08T17:27:30.954Z,0.12
2023-02-08T17:30:05.163Z,0.09
2023-02-08T17:32:55.666Z,0.03
2023-02-08T17:35:44.038Z,0.04
2023-02-08T17:38:17.529Z,0.12
2023-02-08T17:40:55.458Z,0.26
2023-02-08T17:43:28.105Z,0.19
2023-02-08T17:45:59.132Z,0.30
2023-02-08T17:48:54.605Z,0.07
2023-02-08T17:51:35.761Z,-0.01
2023-02-08T17:54:17.156Z,0.07
2023-02-08T17:56:54.087Z,0.09
2023-02-08T17:59:49.391Z,0.01
2023-02-08T18:02:30.645Z,-0.02
2023-02-08T18:05:21.045Z,-0.01
2023-02-08T18:07:54.719Z,-0.08
2023-02-08T18:10:39.987Z,-0.09
2023-02-08T18:13:11.767Z,-0.03
2023-02-08T18:15:53.198Z,0.03
2023-02-08T18:18:33.096Z,-0.11
2023-02-08T18:24:09.282Z,0.01
2023-02-08T18:26:50.501Z,0.04
2023-02-08T18:29:26.963Z,-0.11
2023-02-08T18:32:00.380Z,-0.21
2023-02-08T18:34:40.724Z,-0.22
2023-02-08T18:37:21.426Z,-0.29
2023-02-08T18:40:04.358Z,-0.27
2023-02-08T18:42:45.114Z,-0.14
2023-02-08T18:45:27.232Z,-0.24
2023-02-08T18:48:09.826Z,-0.37
2023-02-08T18:50:46.896Z,-0.41
2023-02-08T18:53:30.589Z,-0.42
2023-02-08T18:56:08.282Z,-0.45
2023-02-08T18:58:52.806Z,-0.38
2023-02-08T19:01:55.346Z,-0.31
2023-02-08T19:04:37.782Z,-0.29
2023-02-08T19:07:21.049Z,-0.30
2023-02-08T19:10:00.778Z,-0.36
2023-02-08T19:12:40.488Z,-0.36
2023-02-08T19:15:22.435Z,-0.38
2023-02-08T19:17:59.071Z,-0.28
2023-02-08T19:20:45.328Z,-0.21
2023-02-08T19:23:27.097Z,-0.32
2023-02-08T19:26:28.367Z,-0.39
2023-02-08T19:29:09.850Z,-0.51
2023-02-08T19:31:43.280Z,-0.44
2023-02-08T19:34:23.574Z,-0.51
2023-02-08T19:37:02.369Z,-0.52
2023-02-08T19:39:33.399Z,-0.51
2023-02-08T19:42:22.870Z,-0.53
2023-02-08T19:45:07.603Z,-0.52
2023-02-08T19:47:51.813Z,-0.54
2023-02-08T19:50:26.615Z,-0.52
2023-02-08T19:53:10.416Z,-0.43
2023-02-08T19:55:55.224Z,-0.44
2023-02-08T19:58:39.018Z,-0.44
2023-02-08T20:01:27.566Z,-0.49
2023-02-08T20:04:18.138Z,-0.43
2023-02-08T20:06:54.416Z,-0.46
2023-02-08T20:09:45.999Z,-0.36
2023-02-08T20:12:25.148Z,-0.45
2023-02-08T20:15:10.359Z,-0.48
2023-02-08T20:17:56.414Z,-0.59
2023-02-08T20:20:36.282Z,-0.67
2023-02-08T20:23:22.706Z,-0.66
2023-02-08T20:26:11.101Z,-0.65
2023-02-08T20:29:01.553Z,-0.74
2023-02-08T20:32:05.268Z,-0.64
2023-02-08T20:34:59.012Z,-0.55
2023-02-08T20:37:38.694Z,-0.75
2023-02-08T20:40:33.557Z,-0.66
2023-02-08T20:43:03.345Z,-0.62
2023-02-08T20:45:33.445Z,-0.60
2023-02-08T20:48:26.047Z,-0.57
2023-02-08T20:51:18.442Z,-0.52
2023-02-08T20:53:59.434Z,-0.56
2023-02-08T20:56:45.397Z,-0.53
2023-02-08T20:59:25.848Z,-0.50
2023-02-08T21:02:03.426Z,-0.39
2023-02-08T21:04:49.554Z,-0.45
2023-02-08T21:07:21.338Z,-0.47
2023-02-08T21:10:07.540Z,-0.49
2023-02-08T21:12:46.019Z,-0.48
2023-02-08T21:15:27.905Z,-0.63
2023-02-08T21:18:06.093Z,-0.65
2023-02-08T21:20:47.860Z,-0.66
2023-02-08T21:23:19.153Z,-0.62
2023-02-08T21:26:12.734Z,-0.64
2023-02-08T21:28:43.711Z,-0.72
2023-02-08T21:31:22.573Z,-0.72
2023-02-08T21:33:54.516Z,-0.68
2023-02-08T21:36:37.780Z,-0.60
2023-02-08T21:39:11.908Z,-0.64
2023-02-08T21:41:44.143Z,-0.70
2023-02-08T21:44:18.597Z,-0.77
2023-02-08T21:47:04.009Z,-0.78
2023-02-08T21:49:51.954Z,-0.72
2023-02-08T21:52:46.175Z,-0.93
2023-02-08T21:55:25.184Z,-0.67
2023-02-08T21:58:04.573Z,-0.73
2023-02-08T22:00:38.888Z,-0.75
2023-02-08T22:03:09.605Z,-0.76
2023-02-08T22:05:40.288Z,-0.73
2023-02-08T22:08:12.145Z,-0.83
2023-02-08T22:10:50.211Z,-0.95
2023-02-08T22:13:34.965Z,-0.94
2023-02-08T22:16:17.364Z,-0.90
2023-02-08T22:18:49.415Z,-1.02
2023-02-08T22:21:37.149Z,-0.98
2023-02-08T22:24:15.328Z,-0.95
2023-02-08T22:26:49.705Z,-1.03
2023-02-08T22:29:20.105Z,-1.15
2023-02-08T22:31:48.828Z,-1.15
2023-02-08T22:34:21.134Z,-1.14
2023-02-08T22:36:56.934Z,-1.30
2023-02-08T22:39:38.963Z,-1.24
2023-02-08T22:42:19.365Z,-0.96
2023-02-08T22:44:52.340Z,-1.09
2023-02-08T22:47:35.389Z,-0.90
2023-02-08T22:50:13.115Z,-1.05
2023-02-08T22:52:51.207Z,-1.14
2023-02-08T22:55:27.196Z,-1.22
2023-02-08T22:57:58.902Z,-1.22
2023-02-08T23:00:37.871Z,-1.18
2023-02-08T23:03:08.845Z,-1.29
2023-02-08T23:05:49.665Z,-1.40
2023-02-08T23:08:26.083Z,-1.45
2023-02-08T23:11:10.876Z,-1.16
2023-02-08T23:13:41.701Z,-1.35
2023-02-08T23:16:22.735Z,-1.31
2023-02-08T23:22:13.528Z,-1.35
2023-02-08T23:24:47.449Z,-1.53
2023-02-08T23:27:25.405Z,-1.40
2023-02-08T23:30:05.564Z,-1.46
2023-02-08T23:32:47.572Z,-1.55
2023-02-08T23:35:21.388Z,-1.41
2023-02-08T23:37:53.460Z,-1.55
2023-02-08T23:40:34.108Z,-1.41
2023-02-08T23:43:14.093Z,-1.40
2023-02-08T23:45:46.074Z,-1.40
2023-02-08T23:48:18.361Z,-1.47
2023-02-08T23:50:58.442Z,-1.56
2023-02-08T23:53:30.417Z,-1.48
2023-02-08T23:56:23.823Z,-1.46
2023-02-08T23:59:06.023Z,-1.49
